Time;durP1;ratioP1;P1;durP2;ratioP2;P2;SDS_P1;SDS_P2;PMS_P1;PMS_P2;Temp;Humidity;BMP_temperature;BMP_pressure;BME280_temperature;BME280_humidity;BME280_pressure;Samples;Min_cycle;Max_cycle;Signal;HPM_P1;HPM_P2
2022/05/22 00:00:49;;;;;;;12.43;10.52;;;;;;;;;;4984470;28;20059;-67
2022/05/22 00:03:18;;;;;;;12.98;11.68;;;;;;;;;;4985376;28;20129;-67
2022/05/22 00:05:46;;;;;;;12.82;10.90;;;;;;;;;;4985268;28;20066;-67
2022/05/22 00:08:15;;;;;;;13.30;10.88;;;;;;;;;;4983811;28;20629;-67
2022/05/22 00:10:44;;;;;;;14.77;13.00;;;;;;;;;;4983832;28;20059;-68
2022/05/22 00:13:14;;;;;;;20.67;11.85;;;;;;;;;;4985117;28;20054;-67
2022/05/22 00:16:36;;;;;;;15.80;11.93;;;;;;;;;;4982236;28;20054;-66
2022/05/22 00:18:32;;;;;;;14.00;11.15;;;;;;;;;;4984943;28;20054;-67
2022/05/22 00:21:00;;;;;;;11.77;10.57;;;;;;;;;;4988301;28;20101;-68
2022/05/22 00:23:31;;;;;;;11.90;10.07;;;;;;;;;;4988930;28;20054;-67
2022/05/22 00:26:00;;;;;;;12.25;10.85;;;;;;;;;;4984163;28;20046;-67
2022/05/22 00:28:29;;;;;;;16.35;9.98;;;;;;;;;;4991232;28;20048;-67
2022/05/22 00:30:57;;;;;;;16.85;11.88;;;;;;;;;;4979364;28;20116;-67
2022/05/22 00:33:29;;;;;;;19.02;10.77;;;;;;;;;;4987237;28;20043;-67
2022/05/22 00:35:57;;;;;;;13.45;11.23;;;;;;;;;;4979160;28;20042;-66
2022/05/22 00:38:25;;;;;;;13.60;10.63;;;;;;;;;;4986441;28;20047;-66
2022/05/22 00:40:55;;;;;;;12.93;9.38;;;;;;;;;;4979239;28;20054;-67
2022/05/22 00:43:41;;;;;;;15.20;9.80;;;;;;;;;;4976369;28;20446;-69
2022/05/22 00:46:14;;;;;;;11.65;10.15;;;;;;;;;;4984207;28;20050;-67
2022/05/22 00:48:49;;;;;;;12.50;11.20;;;;;;;;;;4988483;28;20039;-67
2022/05/22 00:51:33;;;;;;;13.82;11.85;;;;;;;;;;4968824;28;20058;-67
2022/05/22 00:54:05;;;;;;;14.27;12.82;;;;;;;;;;4995359;28;20477;-67
2022/05/22 00:56:36;;;;;;;21.65;12.48;;;;;;;;;;4993469;28;20065;-67
2022/05/22 00:59:07;;;;;;;16.63;11.93;;;;;;;;;;4988268;28;20043;-68
2022/05/22 01:01:37;;;;;;;13.82;11.50;;;;;;;;;;4974017;28;20494;-68
2022/05/22 01:04:08;;;;;;;17.77;11.40;;;;;;;;;;4985978;28;20058;-68
2022/05/22 01:06:41;;;;;;;15.73;12.82;;;;;;;;;;4944368;28;20054;-69
2022/05/22 01:09:13;;;;;;;13.93;10.98;;;;;;;;;;4979153;28;20108;-66
2022/05/22 01:11:44;;;;;;;20.83;11.05;;;;;;;;;;4988101;28;20043;-66
2022/05/22 01:14:18;;;;;;;12.02;10.93;;;;;;;;;;4976714;28;20046;-67
2022/05/22 01:16:50;;;;;;;15.15;12.98;;;;;;;;;;4957510;28;20414;-66
2022/05/22 01:19:24;;;;;;;13.93;10.82;;;;;;;;;;4978336;28;20394;-66
2022/05/22 01:21:55;;;;;;;13.73;10.00;;;;;;;;;;4979380;28;20054;-66
2022/05/22 01:24:26;;;;;;;15.48;10.07;;;;;;;;;;4955205;28;20051;-66
2022/05/22 01:26:56;;;;;;;13.88;10.18;;;;;;;;;;4978606;28;20057;-66
2022/05/22 01:29:43;;;;;;;13.35;11.18;;;;;;;;;;4977130;28;20050;-67
2022/05/22 01:32:13;;;;;;;15.23;9.95;;;;;;;;;;4983671;28;20133;-66
2022/05/22 01:34:44;;;;;;;19.58;10.13;;;;;;;;;;4978524;28;20054;-69
2022/05/22 01:37:13;;;;;;;11.40;9.77;;;;;;;;;;4979263;28;20081;-69
2022/05/22 01:39:44;;;;;;;11.90;8.85;;;;;;;;;;4978644;28;20109;-68
2022/05/22 01:42:13;;;;;;;12.90;8.82;;;;;;;;;;4978547;28;20543;-68
2022/05/22 01:44:42;;;;;;;11.60;9.15;;;;;;;;;;4994929;28;20082;-68
2022/05/22 01:47:10;;;;;;;12.40;8.10;;;;;;;;;;4978671;28;20125;-68
2022/05/22 01:49:39;;;;;;;11.13;7.22;;;;;;;;;;4996208;28;20053;-68
2022/05/22 01:52:10;;;;;;;9.50;7.60;;;;;;;;;;4978180;28;20453;-67
2022/05/22 01:54:40;;;;;;;11.02;7.05;;;;;;;;;;4994686;28;20449;-68
2022/05/22 01:57:07;;;;;;;7.90;7.10;;;;;;;;;;4977692;28;20058;-68
2022/05/22 01:59:37;;;;;;;11.95;8.18;;;;;;;;;;4962788;28;20050;-67
2022/05/22 02:02:17;;;;;;;7.50;5.60;;;;;;;;;;4978090;28;20046;-67
2022/05/22 02:04:46;;;;;;;9.93;6.68;;;;;;;;;;4995755;28;20054;-67
2022/05/22 02:10:06;;;;;;;7.38;5.70;;;;;;;;;;4978350;28;20046;-67
2022/05/22 02:12:34;;;;;;;7.22;5.70;;;;;;;;;;4995349;28;20046;-68
2022/05/22 02:15:07;;;;;;;8.85;6.00;;;;;;;;;;4977884;28;20050;-67
2022/05/22 02:17:36;;;;;;;14.50;7.28;;;;;;;;;;4978059;28;20047;-67
2022/05/22 02:20:05;;;;;;;8.55;5.70;;;;;;;;;;4995327;28;20162;-67
2022/05/22 02:22:45;;;;;;;6.95;5.50;;;;;;;;;;4974770;28;20062;-67
2022/05/22 02:25:19;;;;;;;10.57;5.35;;;;;;;;;;4987916;28;20138;-67
2022/05/22 02:27:56;;;;;;;8.52;5.35;;;;;;;;;;4974823;28;20059;-68
2022/05/22 02:30:29;;;;;;;10.13;5.20;;;;;;;;;;4975543;28;20081;-68
2022/05/22 02:32:59;;;;;;;9.35;5.85;;;;;;;;;;4990850;28;20057;-68
2022/05/22 02:35:34;;;;;;;6.57;5.22;;;;;;;;;;4974225;28;20409;-67
2022/05/22 02:38:10;;;;;;;9.70;5.85;;;;;;;;;;4990931;28;20141;-68
2022/05/22 02:40:46;;;;;;;9.32;5.78;;;;;;;;;;4973542;28;20105;-67
2022/05/22 02:43:15;;;;;;;11.88;6.07;;;;;;;;;;4975155;28;20066;-68
2022/05/22 02:45:51;;;;;;;11.23;5.85;;;;;;;;;;4990600;28;20516;-68
2022/05/22 02:48:20;;;;;;;12.50;6.18;;;;;;;;;;4974174;28;20058;-68
2022/05/22 02:50:59;;;;;;;12.25;5.68;;;;;;;;;;4973763;28;20078;-68
2022/05/22 02:53:27;;;;;;;10.50;6.15;;;;;;;;;;4990439;28;20093;-67
2022/05/22 02:56:27;;;;;;;10.90;5.75;;;;;;;;;;4969394;28;20116;-67
2022/05/22 02:59:15;;;;;;;13.07;6.50;;;;;;;;;;4976294;28;20050;-67
2022/05/22 03:02:08;;;;;;;16.77;8.23;;;;;;;;;;4993763;28;20054;-66
2022/05/22 03:04:36;;;;;;;7.85;5.97;;;;;;;;;;4993031;28;20050;-66
2022/05/22 03:07:11;;;;;;;10.80;5.82;;;;;;;;;;4993566;28;20112;-67
2022/05/22 03:09:41;;;;;;;8.77;5.93;;;;;;;;;;4994006;28;20046;-67
2022/05/22 03:12:18;;;;;;;9.55;6.03;;;;;;;;;;4993548;28;20104;-67
2022/05/22 03:14:52;;;;;;;9.48;6.57;;;;;;;;;;4993160;28;20122;-66
2022/05/22 03:17:22;;;;;;;15.50;6.70;;;;;;;;;;4993369;28;20520;-66
2022/05/22 03:20:00;;;;;;;9.60;6.72;;;;;;;;;;4990271;28;20046;-67
2022/05/22 03:22:29;;;;;;;11.00;7.05;;;;;;;;;;4992725;28;20493;-67
2022/05/22 03:25:01;;;;;;;8.00;6.70;;;;;;;;;;4993034;28;20058;-67
2022/05/22 03:27:30;;;;;;;12.77;7.90;;;;;;;;;;4977290;28;20053;-67
2022/05/22 03:29:58;;;;;;;10.48;7.63;;;;;;;;;;4993977;28;20081;-68
2022/05/22 03:32:26;;;;;;;10.32;7.13;;;;;;;;;;4992615;28;20137;-67
2022/05/22 03:34:57;;;;;;;9.50;6.90;;;;;;;;;;4992909;28;20049;-67
2022/05/22 03:37:25;;;;;;;10.45;6.75;;;;;;;;;;4992473;28;20058;-68
2022/05/22 03:39:58;;;;;;;9.02;6.93;;;;;;;;;;4993277;28;20149;-68
2022/05/22 03:42:27;;;;;;;10.85;7.40;;;;;;;;;;4988653;28;20103;-68
2022/05/22 03:44:55;;;;;;;15.00;7.85;;;;;;;;;;4954522;29;20162;-68
2022/05/22 03:47:23;;;;;;;8.57;6.45;;;;;;;;;;4954295;29;20043;-68
2022/05/22 03:50:05;;;;;;;12.68;7.00;;;;;;;;;;4954011;29;20054;-68
2022/05/22 03:52:35;;;;;;;7.53;6.72;;;;;;;;;;4955292;28;20048;-68
2022/05/22 03:55:10;;;;;;;8.70;6.67;;;;;;;;;;4973997;28;20062;-68
2022/05/22 03:57:38;;;;;;;12.93;7.68;;;;;;;;;;4958299;28;20121;-68
2022/05/22 04:00:08;;;;;;;10.27;6.78;;;;;;;;;;4957014;29;20102;-68
2022/05/22 04:02:59;;;;;;;9.02;6.00;;;;;;;;;;4958565;29;20055;-67
2022/05/22 04:05:28;;;;;;;7.50;6.70;;;;;;;;;;4958784;28;20062;-67
2022/05/22 04:07:58;;;;;;;7.97;5.35;;;;;;;;;;4958138;29;20091;-67
2022/05/22 04:10:36;;;;;;;7.65;5.70;;;;;;;;;;4957188;29;20055;-67
2022/05/22 04:13:05;;;;;;;5.88;5.38;;;;;;;;;;4957858;29;20137;-67
2022/05/22 04:15:34;;;;;;;12.32;5.45;;;;;;;;;;4957380;29;20070;-68
2022/05/22 04:18:05;;;;;;;7.80;5.13;;;;;;;;;;4957366;29;20051;-67
2022/05/22 04:20:33;;;;;;;7.75;5.47;;;;;;;;;;4973754;28;20048;-67
2022/05/22 04:26:08;;;;;;;6.88;4.70;;;;;;;;;;4973745;28;20559;-67
2022/05/22 04:28:37;;;;;;;5.97;5.00;;;;;;;;;;4958313;29;20058;-67
2022/05/22 04:31:16;;;;;;;6.20;5.57;;;;;;;;;;4973831;28;20073;-67
2022/05/22 04:34:07;;;;;;;6.15;5.22;;;;;;;;;;4958142;28;20066;-67
2022/05/22 04:36:38;;;;;;;12.00;5.07;;;;;;;;;;4957282;29;20115;-67
2022/05/22 04:39:06;;;;;;;8.75;5.40;;;;;;;;;;4973436;28;20055;-67
2022/05/22 04:41:38;;;;;;;6.00;5.07;;;;;;;;;;4973493;28;20485;-67
2022/05/22 04:44:12;;;;;;;18.10;5.22;;;;;;;;;;4973046;28;20101;-67
2022/05/22 04:46:41;;;;;;;7.38;4.88;;;;;;;;;;4973196;28;20054;-67
2022/05/22 04:49:09;;;;;;;8.50;5.22;;;;;;;;;;4957222;29;20051;-68
2022/05/22 04:51:37;;;;;;;8.27;5.03;;;;;;;;;;4958193;29;20130;-67
2022/05/22 04:54:10;;;;;;;10.10;4.82;;;;;;;;;;4957384;28;20055;-67
2022/05/22 04:57:01;;;;;;;8.85;4.70;;;;;;;;;;4956611;29;20051;-67
2022/05/22 04:59:31;;;;;;;8.77;4.72;;;;;;;;;;4957017;28;20052;-68
2022/05/22 05:02:00;;;;;;;22.10;5.25;;;;;;;;;;4956221;29;20105;-68
2022/05/22 05:05:08;;;;;;;11.55;5.75;;;;;;;;;;4947637;28;20057;-68
2022/05/22 05:07:40;;;;;;;7.28;5.30;;;;;;;;;;4956814;29;20058;-69
2022/05/22 05:10:28;;;;;;;7.32;5.57;;;;;;;;;;4958218;29;20095;-67
2022/05/22 05:13:11;;;;;;;9.73;5.95;;;;;;;;;;4972358;28;20102;-67
2022/05/22 05:15:41;;;;;;;11.75;6.15;;;;;;;;;;4972851;28;20062;-68
2022/05/22 05:18:18;;;;;;;9.65;6.38;;;;;;;;;;4972346;28;20054;-68
2022/05/22 05:20:48;;;;;;;12.95;7.13;;;;;;;;;;4973540;28;20483;-69
2022/05/22 05:23:18;;;;;;;10.20;7.10;;;;;;;;;;4959819;28;20055;-68
2022/05/22 05:25:59;;;;;;;14.38;6.93;;;;;;;;;;4959524;28;20066;-68
2022/05/22 05:28:27;;;;;;;14.98;8.40;;;;;;;;;;4959627;28;20137;-69
2022/05/22 05:30:56;;;;;;;17.42;8.15;;;;;;;;;;4959535;28;20055;-67
2022/05/22 05:33:26;;;;;;;14.82;8.32;;;;;;;;;;4975700;28;20425;-67
2022/05/22 05:36:18;;;;;;;18.55;8.77;;;;;;;;;;4974897;28;20046;-67
2022/05/22 05:39:04;;;;;;;21.90;9.55;;;;;;;;;;4977087;28;20109;-67
2022/05/22 05:41:55;;;;;;;16.80;11.20;;;;;;;;;;4972853;28;20465;-68
2022/05/22 05:44:28;;;;;;;10.02;9.00;;;;;;;;;;4959221;28;20069;-68
2022/05/22 05:47:05;;;;;;;13.20;10.32;;;;;;;;;;4959232;28;20057;-68
2022/05/22 05:49:41;;;;;;;12.05;9.77;;;;;;;;;;4959317;28;20050;-68
2022/05/22 05:52:21;;;;;;;14.00;9.88;;;;;;;;;;4959155;28;20059;-68
2022/05/22 05:55:07;;;;;;;;;;;;;;;;;;4959466;28;20417;-68
2022/05/22 05:57:53;;;;;;;22.85;10.68;;;;;;;;;;4976153;28;19929;-68
2022/05/22 06:00:25;;;;;;;16.30;10.45;;;;;;;;;;4982932;28;20141;-66
2022/05/22 06:02:53;;;;;;;12.50;9.68;;;;;;;;;;4977567;28;20394;-66
2022/05/22 06:05:23;;;;;;;15.27;10.23;;;;;;;;;;4977865;28;20057;-66
2022/05/22 06:07:52;;;;;;;17.40;10.70;;;;;;;;;;4967385;28;20065;-66
2022/05/22 06:10:28;;;;;;;17.98;11.05;;;;;;;;;;4977785;28;20112;-66
2022/05/22 06:13:15;;;;;;;14.80;10.82;;;;;;;;;;4977336;28;20046;-67
2022/05/22 06:15:49;;;;;;;21.42;11.63;;;;;;;;;;4977250;28;20054;-70
2022/05/22 06:18:19;;;;;;;18.02;10.13;;;;;;;;;;4977658;28;20078;-67
2022/05/22 06:20:49;;;;;;;13.55;9.50;;;;;;;;;;4977432;28;20062;-68
2022/05/22 06:23:24;;;;;;;17.67;9.63;;;;;;;;;;4978209;28;20054;-68
2022/05/22 06:26:14;;;;;;;13.40;9.80;;;;;;;;;;4994527;28;20116;-68
2022/05/22 06:28:47;;;;;;;15.63;10.02;;;;;;;;;;4976075;28;20047;-68
2022/05/22 06:31:48;;;;;;;11.35;9.70;;;;;;;;;;4969103;28;20144;-68
2022/05/22 06:34:35;;;;;;;18.65;9.02;;;;;;;;;;4976437;28;20552;-68
2022/05/22 06:37:22;;;;;;;20.27;9.50;;;;;;;;;;4975018;28;20051;-68
2022/05/22 06:40:22;;;;;;;15.55;7.35;;;;;;;;;;4971812;28;20096;-68
2022/05/22 06:43:17;;;;;;;11.52;7.72;;;;;;;;;;4921574;29;20574;-67
2022/05/22 06:45:53;;;;;;;10.63;8.07;;;;;;;;;;4978403;28;20076;-68
2022/05/22 06:48:54;;;;;;;23.75;8.32;;;;;;;;;;4975067;28;20467;-68
2022/05/22 06:51:44;;;;;;;10.63;6.68;;;;;;;;;;4990234;28;20058;-67
2022/05/22 06:54:38;;;;;;;12.32;7.47;;;;;;;;;;4981456;28;20072;-68
2022/05/22 06:57:45;;;;;;;8.25;6.10;;;;;;;;;;4969974;28;20077;-69
2022/05/22 07:00:24;;;;;;;14.60;6.63;;;;;;;;;;4988938;28;20057;-69
2022/05/22 07:03:11;;;;;;;10.52;6.60;;;;;;;;;;4994028;28;20058;-68
2022/05/22 07:06:10;;;;;;;9.30;6.80;;;;;;;;;;4940958;28;20062;-66
2022/05/22 07:09:04;;;;;;;13.63;6.47;;;;;;;;;;4976018;28;20109;-67
2022/05/22 07:11:54;;;;;;;9.85;5.85;;;;;;;;;;4962636;28;20050;-70
2022/05/22 07:14:23;;;;;;;9.52;6.30;;;;;;;;;;4991139;28;20057;-68
2022/05/22 07:17:13;;;;;;;13.95;6.22;;;;;;;;;;4976159;28;20050;-68
2022/05/22 07:20:11;;;;;;;13.82;6.72;;;;;;;;;;4950421;29;20118;-67
2022/05/22 07:23:00;;;;;;;15.88;7.97;;;;;;;;;;4912088;29;20067;-68
2022/05/22 07:25:53;;;;;;;7.93;6.57;;;;;;;;;;4955805;28;20516;-67
2022/05/22 07:28:38;;;;;;;13.80;5.38;;;;;;;;;;4974961;28;20046;-69
2022/05/22 07:31:23;;;;;;;16.20;6.45;;;;;;;;;;4991146;28;20278;-69
2022/05/22 07:34:12;;;;;;;11.18;7.13;;;;;;;;;;4931435;29;20106;-69
2022/05/22 07:37:06;;;;;;;18.23;7.38;;;;;;;;;;4984383;28;20050;-70
2022/05/22 07:39:45;;;;;;;14.98;6.45;;;;;;;;;;4991378;28;20050;-70
2022/05/22 07:42:28;;;;;;;15.75;8.52;;;;;;;;;;4992746;28;20572;-68
2022/05/22 07:45:34;;;;;;;11.07;6.03;;;;;;;;;;4992195;28;20133;-69
2022/05/22 07:48:35;;;;;;;9.75;5.97;;;;;;;;;;4971591;28;20291;-69
2022/05/22 07:51:27;;;;;;;12.30;6.60;;;;;;;;;;4993395;28;20085;-69
2022/05/22 07:54:07;;;;;;;11.80;5.95;;;;;;;;;;4992814;28;20046;-68
2022/05/22 07:56:51;;;;;;;11.27;6.07;;;;;;;;;;4992691;28;20046;-65
2022/05/22 07:59:32;;;;;;;11.95;6.07;;;;;;;;;;4992583;28;20050;-66
2022/05/22 08:02:19;;;;;;;8.30;5.85;;;;;;;;;;4980024;28;20106;-65
2022/05/22 08:04:52;;;;;;;10.98;6.10;;;;;;;;;;4976225;28;20054;-72
2022/05/22 08:07:21;;;;;;;8.05;5.30;;;;;;;;;;4994001;28;20046;-65
2022/05/22 08:10:03;;;;;;;11.02;5.78;;;;;;;;;;4992873;28;20105;-64
2022/05/22 08:12:40;;;;;;;11.88;5.68;;;;;;;;;;4992458;28;20137;-65
2022/05/22 08:15:17;;;;;;;9.63;6.85;;;;;;;;;;4976851;28;20144;-65
2022/05/22 08:17:47;;;;;;;8.77;5.75;;;;;;;;;;4976211;28;20054;-65
2022/05/22 08:20:20;;;;;;;10.13;6.28;;;;;;;;;;4976910;28;20145;-65
2022/05/22 08:23:06;;;;;;;11.85;6.82;;;;;;;;;;4988261;28;20059;-65
2022/05/22 08:25:58;;;;;;;13.88;6.13;;;;;;;;;;4970904;28;20066;-65
2022/05/22 08:28:29;;;;;;;10.48;6.70;;;;;;;;;;4970183;28;20051;-66
2022/05/22 08:30:57;;;;;;;10.55;6.35;;;;;;;;;;4972033;28;20416;-66
2022/05/22 08:33:27;;;;;;;12.63;6.10;;;;;;;;;;4970590;28;20063;-66
2022/05/22 08:35:55;;;;;;;7.90;5.85;;;;;;;;;;4974211;28;20525;-66
2022/05/22 08:38:25;;;;;;;12.77;6.65;;;;;;;;;;4973740;28;20074;-66
2022/05/22 08:40:55;;;;;;;11.57;5.88;;;;;;;;;;4977281;28;20525;-66
2022/05/22 08:43:33;;;;;;;15.70;6.90;;;;;;;;;;4977998;28;20059;-66
2022/05/22 08:46:20;;;;;;;10.48;6.18;;;;;;;;;;4975958;28;20494;-66
2022/05/22 08:48:57;;;;;;;7.13;5.40;;;;;;;;;;4976762;28;20050;-66
2022/05/22 08:51:34;;;;;;;10.55;5.30;;;;;;;;;;4976318;28;20470;-66
2022/05/22 08:54:24;;;;;;;13.77;6.35;;;;;;;;;;4976458;28;20057;-66
2022/05/22 08:59:46;;;;;;;9.60;6.55;;;;;;;;;;4976577;28;20059;-66
2022/05/22 09:02:29;;;;;;;15.20;6.30;;;;;;;;;;4975996;28;20055;-66
2022/05/22 09:04:57;;;;;;;15.73;6.45;;;;;;;;;;4977585;28;20070;-66
2022/05/22 09:07:38;;;;;;;18.52;6.45;;;;;;;;;;4977041;28;20051;-66
2022/05/22 09:10:17;;;;;;;9.68;5.07;;;;;;;;;;4977211;28;20061;-66
2022/05/22 09:13:04;;;;;;;12.30;5.72;;;;;;;;;;4975660;28;20420;-66
2022/05/22 09:15:59;;;;;;;9.77;6.82;;;;;;;;;;4977407;28;20485;-66
2022/05/22 09:18:38;;;;;;;14.27;7.30;;;;;;;;;;4976867;28;20063;-66
2022/05/22 09:21:22;;;;;;;16.48;6.55;;;;;;;;;;4980570;28;20097;-66
2022/05/22 09:23:56;;;;;;;21.07;7.50;;;;;;;;;;4996322;28;20129;-66
2022/05/22 09:26:41;;;;;;;14.40;6.25;;;;;;;;;;4996455;28;20482;-66
2022/05/22 09:29:28;;;;;;;8.88;6.80;;;;;;;;;;4996020;28;20077;-67
2022/05/22 09:32:03;;;;;;;13.13;7.10;;;;;;;;;;4996369;28;20528;-67
2022/05/22 09:34:45;;;;;;;13.13;7.28;;;;;;;;;;4995857;28;20054;-67
2022/05/22 09:37:45;;;;;;;12.57;6.20;;;;;;;;;;4996277;28;20452;-66
2022/05/22 09:40:21;;;;;;;11.15;7.68;;;;;;;;;;4995528;28;20054;-66
2022/05/22 09:43:19;;;;;;;14.68;6.70;;;;;;;;;;4996493;28;20165;-66
2022/05/22 09:45:58;;;;;;;8.27;5.55;;;;;;;;;;4995404;28;20062;-65
2022/05/22 09:48:50;;;;;;;13.05;6.03;;;;;;;;;;4996247;28;20117;-66
2022/05/22 09:51:31;;;;;;;13.43;6.68;;;;;;;;;;4995517;28;20046;-66
2022/05/22 09:54:16;;;;;;;10.98;7.13;;;;;;;;;;4995329;28;20456;-66
2022/05/22 09:57:37;;;;;;;15.75;6.93;;;;;;;;;;4995164;28;20517;-67
2022/05/22 10:00:15;;;;;;;15.30;8.10;;;;;;;;;;4994236;28;20058;-65
2022/05/22 10:03:15;;;;;;;17.27;9.63;;;;;;;;;;4990695;28;20052;-65
2022/05/22 10:05:52;;;;;;;16.38;8.13;;;;;;;;;;4977845;28;20042;-67
2022/05/22 10:08:42;;;;;;;28.13;9.27;;;;;;;;;;4994861;28;20043;-66
2022/05/22 10:11:26;;;;;;;16.58;8.80;;;;;;;;;;4994679;28;20390;-66
2022/05/22 10:13:59;;;;;;;12.85;7.35;;;;;;;;;;4993140;28;20046;-66
2022/05/22 10:16:53;;;;;;;13.23;8.52;;;;;;;;;;4993595;28;20050;-66
2022/05/22 10:19:45;;;;;;;12.25;8.30;;;;;;;;;;4994589;28;20065;-65
2022/05/22 10:22:29;;;;;;;18.27;8.57;;;;;;;;;;4992236;28;20072;-66
2022/05/22 10:25:31;;;;;;;14.48;8.77;;;;;;;;;;4993015;28;20050;-66
2022/05/22 10:28:12;;;;;;;24.52;7.95;;;;;;;;;;4995414;28;20134;-67
2022/05/22 10:30:54;;;;;;;13.57;8.02;;;;;;;;;;4994906;28;20074;-66
2022/05/22 10:33:44;;;;;;;17.23;7.72;;;;;;;;;;4993959;28;20049;-67
2022/05/22 10:36:30;;;;;;;9.32;7.05;;;;;;;;;;4995307;28;20137;-66
2022/05/22 10:39:07;;;;;;;10.88;6.88;;;;;;;;;;4978303;28;20120;-66
2022/05/22 10:44:34;;;;;;;17.50;7.75;;;;;;;;;;4995134;28;20053;-66
2022/05/22 10:47:26;;;;;;;12.65;7.53;;;;;;;;;;4994545;28;20086;-67
2022/05/22 10:49:54;;;;;;;19.50;7.53;;;;;;;;;;4994197;28;20050;-65
2022/05/22 10:52:25;;;;;;;13.98;6.95;;;;;;;;;;4992428;28;20137;-65
2022/05/22 10:54:55;;;;;;;11.65;5.65;;;;;;;;;;4906712;28;20086;-65
2022/05/22 10:57:31;;;;;;;14.07;6.70;;;;;;;;;;4976026;28;20050;-65
2022/05/22 11:00:10;;;;;;;14.02;5.82;;;;;;;;;;4975627;28;20545;-65
2022/05/22 11:02:39;;;;;;;14.23;6.47;;;;;;;;;;4974002;28;20062;-65
2022/05/22 11:05:37;;;;;;;12.27;7.15;;;;;;;;;;4994274;28;20050;-66
2022/05/22 11:08:06;;;;;;;14.88;5.68;;;;;;;;;;4992589;28;20057;-67
2022/05/22 11:10:37;;;;;;;11.35;6.50;;;;;;;;;;4987987;28;20051;-67
2022/05/22 11:13:10;;;;;;;13.32;6.68;;;;;;;;;;4976501;28;20058;-66
2022/05/22 11:15:42;;;;;;;13.25;6.00;;;;;;;;;;4986381;28;20062;-65
2022/05/22 11:18:19;;;;;;;11.98;5.22;;;;;;;;;;4976899;28;20038;-65
2022/05/22 11:21:03;;;;;;;8.50;5.80;;;;;;;;;;4991657;28;20069;-67
2022/05/22 11:23:51;;;;;;;10.02;5.13;;;;;;;;;;4983713;28;20073;-65
2022/05/22 11:26:36;;;;;;;10.85;4.70;;;;;;;;;;4983365;28;20051;-65
2022/05/22 11:29:36;;;;;;;6.70;5.35;;;;;;;;;;4967899;28;20068;-66
2022/05/22 11:32:30;;;;;;;8.23;5.65;;;;;;;;;;4957379;28;20405;-65
2022/05/22 11:34:58;;;;;;;;;;;;;;;;;;4972289;28;20174;-64
2022/05/22 11:38:01;;;;;;;10.25;4.97;;;;;;;;;;4986820;28;19971;-64
2022/05/22 11:41:05;;;;;;;9.25;4.95;;;;;;;;;;4988571;28;20060;-66
2022/05/22 11:43:44;;;;;;;10.02;4.88;;;;;;;;;;4961037;28;20042;-65
2022/05/22 11:46:29;;;;;;;14.75;5.53;;;;;;;;;;4988166;28;20050;-66
2022/05/22 11:49:17;;;;;;;15.55;5.30;;;;;;;;;;4990733;28;20047;-65
2022/05/22 11:55:50;;;;;;;11.00;5.00;;;;;;;;;;4985788;28;20090;-66
2022/05/22 11:58:39;;;;;;;9.00;5.00;;;;;;;;;;4990253;28;20394;-66
2022/05/22 12:01:07;;;;;;;8.18;5.07;;;;;;;;;;4986281;28;20066;-65
2022/05/22 12:03:59;;;;;;;14.77;6.25;;;;;;;;;;4987718;28;20081;-65
2022/05/22 12:06:49;;;;;;;13.57;5.88;;;;;;;;;;4988349;28;20383;-67
2022/05/22 12:09:23;;;;;;;13.95;5.82;;;;;;;;;;4985584;28;20104;-67
2022/05/22 12:12:09;;;;;;;9.45;6.00;;;;;;;;;;4983976;28;20100;-66
2022/05/22 12:15:12;;;;;;;12.43;6.85;;;;;;;;;;4984117;28;20054;-66
2022/05/22 12:17:57;;;;;;;9.60;4.90;;;;;;;;;;4984815;28;20057;-66
2022/05/22 12:20:32;;;;;;;10.82;6.07;;;;;;;;;;4985923;28;20098;-67
2022/05/22 12:23:15;;;;;;;8.43;5.13;;;;;;;;;;4986604;28;20145;-66
2022/05/22 12:25:54;;;;;;;11.25;5.55;;;;;;;;;;4985309;28;20043;-66
2022/05/22 12:28:27;;;;;;;17.02;7.20;;;;;;;;;;4995722;28;20038;-66
2022/05/22 12:30:57;;;;;;;9.57;5.00;;;;;;;;;;4987630;28;20133;-66
2022/05/22 12:33:32;;;;;;;14.95;5.70;;;;;;;;;;4993643;28;20096;-66
2022/05/22 12:36:01;;;;;;;12.23;5.72;;;;;;;;;;4988104;28;20137;-66
2022/05/22 12:38:29;;;;;;;11.73;5.40;;;;;;;;;;4987775;28;20039;-66
2022/05/22 12:41:08;;;;;;;7.22;5.65;;;;;;;;;;4986708;28;20084;-66
2022/05/22 12:43:40;;;;;;;11.32;5.95;;;;;;;;;;4987241;28;20102;-66
2022/05/22 12:46:10;;;;;;;12.20;6.80;;;;;;;;;;4978435;28;20393;-66
2022/05/22 12:48:43;;;;;;;8.60;6.05;;;;;;;;;;4986466;28;20053;-67
2022/05/22 12:51:13;;;;;;;9.55;6.07;;;;;;;;;;4974888;28;20062;-66
2022/05/22 12:54:04;;;;;;;7.80;5.43;;;;;;;;;;4988910;28;20057;-66
2022/05/22 12:56:32;;;;;;;12.95;6.32;;;;;;;;;;4987548;28;20050;-67
2022/05/22 12:59:05;;;;;;;8.10;5.22;;;;;;;;;;4987486;28;20409;-68
2022/05/22 13:01:37;;;;;;;10.50;5.03;;;;;;;;;;4988685;28;20054;-65
2022/05/22 13:04:18;;;;;;;7.80;5.40;;;;;;;;;;4990038;28;20413;-66
2022/05/22 13:06:51;;;;;;;11.07;5.78;;;;;;;;;;4990041;28;20046;-66
2022/05/22 13:09:31;;;;;;;25.52;6.18;;;;;;;;;;4971469;28;20109;-66
2022/05/22 13:12:26;;;;;;;9.07;5.05;;;;;;;;;;4991645;28;20438;-66
2022/05/22 13:15:22;;;;;;;10.75;6.18;;;;;;;;;;4993074;28;20058;-67
2022/05/22 13:18:12;;;;;;;16.05;5.90;;;;;;;;;;4994974;28;20101;-66
2022/05/22 13:20:39;;;;;;;12.80;6.38;;;;;;;;;;4974742;28;20054;-66
2022/05/22 13:23:12;;;;;;;18.98;5.88;;;;;;;;;;4994027;28;20097;-66
2022/05/22 13:25:43;;;;;;;12.13;5.20;;;;;;;;;;4993278;28;20420;-66
2022/05/22 13:28:27;;;;;;;12.23;5.28;;;;;;;;;;4977327;28;20172;-67
2022/05/22 13:31:03;;;;;;;11.40;5.43;;;;;;;;;;4991492;28;20141;-66
2022/05/22 13:33:32;;;;;;;10.70;6.07;;;;;;;;;;4975727;28;20046;-65
2022/05/22 13:36:05;;;;;;;7.10;5.05;;;;;;;;;;4993362;28;20069;-66
2022/05/22 13:38:33;;;;;;;17.30;5.32;;;;;;;;;;4976403;28;20124;-65
2022/05/22 13:41:13;;;;;;;10.13;4.68;;;;;;;;;;4994248;28;20042;-67
2022/05/22 13:44:21;;;;;;;15.98;5.32;;;;;;;;;;4994127;28;20440;-67
2022/05/22 13:47:09;;;;;;;12.40;5.93;;;;;;;;;;4980041;28;20050;-66
2022/05/22 13:53:23;;;;;;;8.60;6.05;;;;;;;;;;4991584;28;20046;-66
2022/05/22 13:55:55;;;;;;;15.57;5.30;;;;;;;;;;4933353;29;20071;-67
2022/05/22 13:58:46;;;;;;;11.93;5.05;;;;;;;;;;4983801;28;20423;-68
2022/05/22 14:01:16;;;;;;;9.30;5.25;;;;;;;;;;4975459;28;20497;-67
2022/05/22 14:03:51;;;;;;;10.40;5.32;;;;;;;;;;4975847;28;20054;-67
2022/05/22 14:06:23;;;;;;;9.77;5.82;;;;;;;;;;4991459;28;20057;-67
2022/05/22 14:08:53;;;;;;;8.75;5.35;;;;;;;;;;4974731;28;20058;-66
2022/05/22 14:11:25;;;;;;;14.55;5.78;;;;;;;;;;4992214;28;20089;-67
2022/05/22 14:14:17;;;;;;;11.32;5.97;;;;;;;;;;4991532;28;20050;-67
2022/05/22 14:16:54;;;;;;;12.57;5.90;;;;;;;;;;4992156;28;20117;-66
2022/05/22 14:19:29;;;;;;;10.70;4.53;;;;;;;;;;4992270;28;20517;-67
2022/05/22 14:22:16;;;;;;;10.55;6.30;;;;;;;;;;4993470;28;20066;-69
2022/05/22 14:24:52;;;;;;;10.77;5.47;;;;;;;;;;4973158;28;20128;-66
2022/05/22 14:27:35;;;;;;;11.07;5.47;;;;;;;;;;4991185;28;20046;-67
2022/05/22 14:30:12;;;;;;;10.05;5.32;;;;;;;;;;4979800;28;20293;-68
2022/05/22 14:32:42;;;;;;;12.95;4.88;;;;;;;;;;4984731;28;20538;-67
2022/05/22 14:35:20;;;;;;;11.02;5.85;;;;;;;;;;4972546;28;20078;-68
2022/05/22 14:37:50;;;;;;;15.20;5.13;;;;;;;;;;4984747;28;20473;-67
2022/05/22 14:40:24;;;;;;;8.75;4.97;;;;;;;;;;4986486;28;20061;-67
2022/05/22 14:42:58;;;;;;;9.35;4.97;;;;;;;;;;4986200;28;20156;-67
2022/05/22 14:45:32;;;;;;;9.45;5.05;;;;;;;;;;4986542;28;20046;-68
2022/05/22 14:48:11;;;;;;;14.27;5.80;;;;;;;;;;4985666;28;20185;-67
2022/05/22 14:50:46;;;;;;;9.13;6.15;;;;;;;;;;4969032;28;20049;-66
2022/05/22 14:53:36;;;;;;;19.33;7.30;;;;;;;;;;4984640;28;20124;-66
2022/05/22 14:56:17;;;;;;;10.73;5.88;;;;;;;;;;4985721;28;20382;-67
2022/05/22 14:58:59;;;;;;;10.10;5.82;;;;;;;;;;4979386;28;20059;-67
2022/05/22 15:01:48;;;;;;;15.40;6.27;;;;;;;;;;4985660;28;20047;-66
2022/05/22 15:04:37;;;;;;;9.77;5.95;;;;;;;;;;4982508;28;20294;-69
2022/05/22 15:07:16;;;;;;;10.07;6.60;;;;;;;;;;4984413;28;20050;-66
2022/05/22 15:10:17;;;;;;;8.55;6.25;;;;;;;;;;4973707;28;20405;-67
2022/05/22 15:12:47;;;;;;;13.80;7.32;;;;;;;;;;4976377;28;20054;-67
2022/05/22 15:15:36;;;;;;;13.38;7.25;;;;;;;;;;4992446;28;20134;-67
2022/05/22 15:18:16;;;;;;;13.80;7.43;;;;;;;;;;4959298;28;20046;-68
2022/05/22 15:20:45;;;;;;;12.05;6.55;;;;;;;;;;4991019;28;20034;-67
2022/05/22 15:26:20;;;;;;;10.93;6.82;;;;;;;;;;4977636;28;20128;-67
2022/05/22 15:28:49;;;;;;;13.65;6.68;;;;;;;;;;4987816;28;20146;-67
2022/05/22 15:31:29;;;;;;;26.83;6.90;;;;;;;;;;4975934;28;20046;-67
2022/05/22 15:34:10;;;;;;;9.27;6.50;;;;;;;;;;4991980;28;20073;-68
2022/05/22 15:36:42;;;;;;;10.75;6.72;;;;;;;;;;4991769;28;20054;-65
2022/05/22 15:39:24;;;;;;;9.77;6.25;;;;;;;;;;4993196;28;20054;-65
2022/05/22 15:42:10;;;;;;;8.50;6.30;;;;;;;;;;4993751;28;20035;-65
2022/05/22 15:44:51;;;;;;;14.25;7.70;;;;;;;;;;4976260;28;20093;-65
2022/05/22 15:47:27;;;;;;;12.52;5.53;;;;;;;;;;4993937;28;20042;-65
2022/05/22 15:52:49;;;;;;;11.60;7.80;;;;;;;;;;4993632;28;20126;-65
2022/05/22 15:55:20;;;;;;;11.07;6.43;;;;;;;;;;4993303;28;20058;-65
2022/05/22 15:57:49;;;;;;;13.52;6.53;;;;;;;;;;4993586;28;20050;-65
2022/05/22 16:00:20;;;;;;;13.05;7.75;;;;;;;;;;4993116;28;20049;-65
2022/05/22 16:02:57;;;;;;;13.93;7.03;;;;;;;;;;4992845;28;20149;-65